^^
Station Historical Data
Daily Summary for March 8, 2018 Units:  English    Metric   Both
« Previous Day
Next Day »
Daily Weekly Monthly Yearly Custom
  High: Low: Average:
Temperature: TemperatureF °F 55.6 °F 64.6 °F
Dew Point: DewpointF °F 31.6 °F 44.4 °F
Humidity: Humidity% 18% 54%
Wind Speed: WindSpeedMPHmph 4.9mph 11.4mph
Wind Gust: WindSpeedGustMPHmph - -
Wind- - South
Pressure: PressureIn in 29.81 in -
Precipitation: 0.00 in    
Historical Graphs
 
 
Tabular Data for March 8, 2018
Time Temperature Dew Point Pressure Wind Wind Speed Wind Gust Humidity Rainfall Rate (Hourly) solar Conditions
TemperatureF °F DewpointF °F PressureIn in Calm     Humidity% HourlyPrecipIn in SolarRadiationWatts/m^2 W/m2 Conditions
04:47 57.0 °F 51.6 °F 29.83 in South 6.9 mph 9.0 mph 82% 0.00 in 0.0 W/m2
04:52 56.8 °F 51.4 °F 29.83 in South 8.9 mph 10.0 mph 82% 0.00 in 0.0 W/m2
05:02 56.8 °F 51.1 °F 29.83 in South 4.9 mph 8.0 mph 81% 0.00 in 0.0 W/m2
05:08 56.7 °F 50.9 °F 29.83 in South 6.9 mph 8.0 mph 81% 0.00 in 0.0 W/m2
05:17 56.5 °F 50.7 °F 29.83 in South 6.9 mph 7.0 mph 81% 0.00 in 0.0 W/m2
05:22 56.5 °F 50.7 °F 29.84 in South 6.9 mph 9.0 mph 81% 0.00 in 0.0 W/m2
05:27 56.5 °F 50.7 °F 29.84 in South 6.0 mph 10.0 mph 81% 0.00 in 0.0 W/m2
05:32 56.3 °F 50.9 °F 29.84 in SSW 6.9 mph 11.0 mph 82% 0.00 in 0.0 W/m2
05:37 56.3 °F 50.9 °F 29.85 in SSW 8.1 mph 11.0 mph 82% 0.00 in 0.0 W/m2
05:42 56.1 °F 50.7 °F 29.84 in SSW 8.9 mph 12.0 mph 82% 0.00 in 0.0 W/m2
05:47 56.1 °F 50.4 °F 29.84 in SSW 15.0 mph 15.0 mph 81% 0.00 in 0.0 W/m2
05:52 56.1 °F 50.4 °F 29.84 in SSW 13.0 mph 13.0 mph 81% 0.00 in 0.0 W/m2
05:57 55.9 °F 50.2 °F 29.84 in SSW 8.9 mph 12.0 mph 81% 0.00 in 0.0 W/m2
06:03 55.9 °F 50.2 °F 29.84 in South 8.9 mph 12.0 mph 81% 0.00 in 0.0 W/m2
06:08 55.9 °F 50.2 °F 29.84 in SSW 12.1 mph 13.0 mph 81% 0.00 in 0.0 W/m2
06:14 55.8 °F 50.0 °F 29.84 in SSW 8.1 mph 14.0 mph 81% 0.00 in 0.0 W/m2
06:20 55.8 °F 50.0 °F 29.84 in SSW 8.1 mph 12.0 mph 81% 0.00 in 0.0 W/m2
06:25 55.8 °F 50.0 °F 29.84 in SSW 11.0 mph 12.0 mph 81% 0.00 in 0.0 W/m2
06:38 55.6 °F 50.2 °F 29.85 in South 13.0 mph 13.0 mph 82% 0.00 in 0.0 W/m2
06:51 55.6 °F 49.8 °F 29.85 in South 12.1 mph 15.0 mph 81% 0.00 in 5.0 W/m2
07:00 55.6 °F 49.8 °F 29.86 in SSW 14.1 mph 17.0 mph 81% 0.00 in 12.0 W/m2
07:08 55.8 °F 50.0 °F 29.86 in South 16.1 mph 17.0 mph 81% 0.00 in 23.0 W/m2
07:14 55.9 °F 50.2 °F 29.86 in South 17.9 mph 19.0 mph 81% 0.00 in 39.0 W/m2
07:24 56.1 °F 50.0 °F 29.87 in South 12.1 mph 15.0 mph 80% 0.00 in 84.0 W/m2
07:29 56.5 °F 50.0 °F 29.87 in South 14.1 mph 18.0 mph 79% 0.00 in 91.0 W/m2
07:34 56.5 °F 50.0 °F 29.87 in SSW 15.0 mph 17.0 mph 79% 0.00 in 113.0 W/m2
07:40 56.7 °F 49.8 °F 29.87 in South 17.0 mph 18.0 mph 78% 0.00 in 130.0 W/m2
07:47 56.7 °F 49.8 °F 29.87 in SSW 14.1 mph 17.0 mph 78% 0.00 in 151.0 W/m2
07:58 57.0 °F 49.8 °F 29.88 in SSW 11.0 mph 16.0 mph 77% 0.00 in 193.0 W/m2
08:12 57.6 °F 50.4 °F 29.88 in SSW 16.1 mph 16.1 mph 77% 0.00 in 260.0 W/m2
08:23 57.7 °F 50.2 °F 29.88 in SSW 17.0 mph 18.0 mph 76% 0.00 in 302.0 W/m2
08:37 58.6 °F 50.0 °F 29.88 in South 12.1 mph 15.0 mph 73% 0.00 in 357.0 W/m2
08:49 58.8 °F 49.5 °F 29.88 in SSW 14.1 mph 20.0 mph 71% 0.00 in 394.0 W/m2
09:04 59.2 °F 49.5 °F 29.88 in SSW 17.0 mph 17.0 mph 70% 0.00 in 445.0 W/m2
09:19 60.3 °F 48.4 °F 29.89 in South 15.0 mph 17.0 mph 65% 0.00 in 499.0 W/m2
09:35 61.0 °F 48.7 °F 29.88 in South 13.0 mph 17.0 mph 64% 0.00 in 550.0 W/m2
10:05 62.8 °F 48.2 °F 29.89 in South 14.1 mph 16.0 mph 59% 0.00 in 643.0 W/m2
10:34 65.1 °F 47.5 °F 29.88 in SSE 11.0 mph 14.0 mph 53% 0.00 in 726.0 W/m2
11:06 67.5 °F 47.7 °F 29.88 in SSW 11.0 mph 16.0 mph 49% 0.00 in 800.0 W/m2
11:22 68.2 °F 46.6 °F 29.88 in SSW 13.0 mph 16.0 mph 46% 0.00 in 828.0 W/m2
12:19 72.7 °F 43.5 °F 29.87 in SSW 14.1 mph 20.0 mph 35% 0.00 in 916.0 W/m2
12:44 74.1 °F 40.6 °F 29.87 in SSW 16.1 mph 16.1 mph 30% 0.00 in 926.0 W/m2
14:24 77.5 °F 33.3 °F 29.84 in South 12.1 mph 17.0 mph 20% 0.00 in 863.0 W/m2
14:40 78.1 °F 32.5 °F 29.83 in SSE 13.0 mph 20.0 mph 19% 0.00 in 851.0 W/m2
15:50 79.3 °F 34.7 °F 29.82 in SSW 12.1 mph 19.0 mph 20% 0.00 in 689.0 W/m2
16:05 79.9 °F 34.0 °F 29.82 in South 16.1 mph 20.0 mph 19% 0.00 in 647.0 W/m2
16:19 79.5 °F 34.9 °F 29.81 in SW 14.1 mph 17.0 mph 20% 0.00 in 601.0 W/m2
16:39 79.3 °F 33.4 °F 29.81 in South 16.1 mph 23.0 mph 19% 0.00 in 534.0 W/m2
16:49 79.3 °F 34.7 °F 29.81 in South 8.1 mph 17.0 mph 20% 0.00 in 501.0 W/m2
16:59 79.3 °F 34.7 °F 29.81 in SSW 8.9 mph 14.0 mph 20% 0.00 in 466.0 W/m2
17:08 79.2 °F 33.4 °F 29.81 in SSW 16.1 mph 20.0 mph 19% 0.00 in 432.0 W/m2
17:16 79.3 °F 34.7 °F 29.81 in SSE 17.9 mph 19.0 mph 20% 0.00 in 394.0 W/m2
17:26 79.2 °F 33.4 °F 29.81 in South 14.1 mph 18.0 mph 19% 0.00 in 357.0 W/m2
17:31 78.8 °F 31.6 °F 29.81 in SSE 14.1 mph 19.0 mph 18% 0.00 in 341.0 W/m2
17:36 79.0 °F 34.5 °F 29.81 in South 14.1 mph 17.0 mph 20% 0.00 in 318.0 W/m2
17:41 79.0 °F 34.5 °F 29.81 in South 13.0 mph 17.0 mph 20% 0.00 in 306.0 W/m2
17:51 78.4 °F 34.0 °F 29.81 in SSE 12.1 mph 16.0 mph 20% 0.00 in 264.0 W/m2
17:56 78.4 °F 35.2 °F 29.81 in South 15.0 mph 15.0 mph 21% 0.00 in 243.0 W/m2
18:02 78.4 °F 32.7 °F 29.81 in South 17.0 mph 20.0 mph 19% 0.00 in 220.0 W/m2
18:08 78.1 °F 33.8 °F 29.81 in SSE 14.1 mph 19.0 mph 20% 0.00 in 195.0 W/m2
19:42 74.5 °F 33.1 °F 29.83 in South 14.1 mph 16.0 mph 22% 0.00 in 0.0 W/m2
20:27 72.9 °F 35.1 °F 29.84 in SSE 8.9 mph 14.0 mph 25% 0.00 in 0.0 W/m2
20:56 71.6 °F 38.5 °F 29.84 in SSE 8.9 mph 12.0 mph 30% 0.00 in 0.0 W/m2
21:12 71.1 °F 41.4 °F 29.85 in SSE 10.1 mph 14.0 mph 34% 0.00 in 0.0 W/m2
21:27 70.3 °F 42.1 °F 29.85 in South 8.9 mph 9.0 mph 36% 0.00 in 0.0 W/m2
21:38 69.4 °F 44.8 °F 29.86 in South 6.0 mph 10.0 mph 41% 0.00 in 0.0 W/m2
21:46 68.5 °F 45.7 °F 29.85 in South 6.0 mph 10.0 mph 44% 0.00 in 0.0 W/m2
21:52 68.2 °F 46.0 °F 29.85 in South 8.1 mph 11.0 mph 45% 0.00 in 0.0 W/m2
21:58 67.8 °F 46.2 °F 29.86 in South 6.0 mph 11.0 mph 46% 0.00 in 0.0 W/m2
22:08 67.3 °F 46.4 °F 29.86 in South 10.1 mph 11.0 mph 47% 0.00 in 0.0 W/m2
22:17 66.9 °F 46.6 °F 29.86 in South 8.1 mph 11.0 mph 48% 0.00 in 0.0 W/m2
22:22 66.7 °F 46.4 °F 29.86 in SSW 11.0 mph 11.0 mph 48% 0.00 in 0.0 W/m2
22:28 66.6 °F 46.8 °F 29.86 in SSW 13.0 mph 14.0 mph 49% 0.00 in 0.0 W/m2
22:37 66.2 °F 46.9 °F 29.86 in South 11.0 mph 14.0 mph 50% 0.00 in 0.0 W/m2
22:42 65.8 °F 46.8 °F 29.86 in SSW 11.0 mph 13.0 mph 50% 0.00 in 0.0 W/m2
22:47 65.8 °F 47.1 °F 29.86 in SSW 13.0 mph 17.0 mph 51% 0.00 in 0.0 W/m2
22:52 65.7 °F 47.1 °F 29.86 in South 13.0 mph 15.0 mph 51% 0.00 in 0.0 W/m2
22:57 65.7 °F 47.1 °F 29.86 in South 11.0 mph 15.0 mph 51% 0.00 in 0.0 W/m2
23:02 65.5 °F 46.9 °F 29.86 in South 6.9 mph 13.0 mph 51% 0.00 in 0.0 W/m2
23:07 65.1 °F 47.1 °F 29.86 in South 11.0 mph 13.0 mph 52% 0.00 in 0.0 W/m2
23:17 64.8 °F 46.8 °F 29.86 in South 6.9 mph 9.0 mph 52% 0.00 in 0.0 W/m2
23:22 64.6 °F 47.1 °F 29.86 in SSW 8.9 mph 11.0 mph 53% 0.00 in 0.0 W/m2
23:32 64.6 °F 47.5 °F 29.86 in South 8.9 mph 13.0 mph 54% 0.00 in 0.0 W/m2
23:37 64.4 °F 47.5 °F 29.86 in South 6.9 mph 13.0 mph 54% 0.00 in 0.0 W/m2
23:42 64.2 °F 47.3 °F 29.86 in South 13.0 mph 14.0 mph 54% 0.00 in 0.0 W/m2
23:52 64.0 °F 47.1 °F 29.87 in SSE 8.9 mph 13.0 mph 54% 0.00 in 0.0 W/m2
23:57 63.9 °F 46.9 °F 29.87 in SSE 6.9 mph 13.0 mph 54% 0.00 in 0.0 W/m2
Canyon Roadhouse, Fishriver Canyon, Namibia
Compliments of Weather Underground - 2 mb